createdAt,value
2022-08-12T00:01:13.440Z,1.60
2022-08-12T00:04:00.133Z,1.17
2022-08-12T00:06:48.023Z,1.10
2022-08-12T00:09:33.940Z,1.40
2022-08-12T00:12:19.976Z,1.20
2022-08-12T00:15:06.204Z,1.20
2022-08-12T00:17:53.020Z,1.30
2022-08-12T00:20:38.901Z,1.13
2022-08-12T00:23:24.965Z,1.23
2022-08-12T00:26:20.610Z,1.25
2022-08-12T00:29:09.912Z,1.50
2022-08-12T00:31:55.863Z,1.30
2022-08-12T00:34:41.721Z,1.30
2022-08-12T00:37:28.296Z,1.38
2022-08-12T00:40:15.583Z,1.45
2022-08-12T00:42:43.283Z,1.20
2022-08-12T00:45:11.224Z,1.20
2022-08-12T00:47:39.759Z,1.30
2022-08-12T00:50:08.837Z,1.05
2022-08-12T00:52:36.552Z,1.30
2022-08-12T00:55:05.915Z,1.20
2022-08-12T00:57:37.181Z,1.08
2022-08-12T01:00:09.340Z,1.20
2022-08-12T01:02:40.901Z,1.10
2022-08-12T01:05:31.116Z,1.15
2022-08-12T01:08:17.483Z,1.30
2022-08-12T01:11:05.200Z,1.20
2022-08-12T01:13:35.288Z,1.20
2022-08-12T01:16:05.570Z,1.20
2022-08-12T01:18:35.185Z,1.10
2022-08-12T01:21:20.880Z,1.20
2022-08-12T01:23:51.247Z,1.23
2022-08-12T01:26:23.667Z,1.20
2022-08-12T01:28:57.004Z,1.30
2022-08-12T01:31:28.072Z,1.00
2022-08-12T01:33:59.849Z,1.20
2022-08-12T01:36:31.118Z,1.30
2022-08-12T01:39:00.034Z,1.10
2022-08-12T01:41:33.759Z,1.40
2022-08-12T01:44:02.468Z,1.33
2022-08-12T01:46:40.787Z,1.35
2022-08-12T01:49:40.509Z,1.02
2022-08-12T01:52:21.312Z,1.15
2022-08-12T01:54:51.585Z,1.45
2022-08-12T01:57:57.821Z,1.20
2022-08-12T02:00:15.720Z,1.00
2022-08-12T02:03:13.932Z,1.27
2022-08-12T02:06:34.126Z,1.30
2022-08-12T02:09:23.436Z,1.15
2022-08-12T02:11:57.037Z,1.17
2022-08-12T02:15:13.222Z,1.20
2022-08-12T02:18:00.570Z,1.25
2022-08-12T02:20:51.928Z,1.20
2022-08-12T02:23:28.300Z,1.23
2022-08-12T02:26:09.542Z,1.20
2022-08-12T02:28:40.000Z,1.10
2022-08-12T02:31:09.178Z,1.10
2022-08-12T02:33:38.307Z,0.90
2022-08-12T02:36:06.601Z,1.20
2022-08-12T02:38:34.524Z,1.38
2022-08-12T02:41:04.207Z,1.20
2022-08-12T02:43:39.203Z,1.10
2022-08-12T02:46:14.596Z,0.95
2022-08-12T02:48:48.327Z,1.10
2022-08-12T02:51:32.117Z,1.30
2022-08-12T02:54:06.128Z,1.20
2022-08-12T02:56:38.143Z,1.50
2022-08-12T02:59:12.081Z,1.20
2022-08-12T03:01:48.563Z,0.93
2022-08-12T03:04:30.124Z,1.35
2022-08-12T03:07:14.661Z,1.23
2022-08-12T03:10:04.258Z,1.08
2022-08-12T03:12:47.462Z,1.42
2022-08-12T03:15:22.413Z,1.17
2022-08-12T03:18:24.977Z,1.40
2022-08-12T03:20:49.411Z,1.38
2022-08-12T03:23:21.558Z,1.20
2022-08-12T03:25:59.039Z,1.20
2022-08-12T03:28:47.351Z,1.20
2022-08-12T03:31:14.812Z,1.33
2022-08-12T03:34:00.831Z,1.33
2022-08-12T03:36:35.285Z,1.38
2022-08-12T03:39:14.221Z,1.27
2022-08-12T03:41:54.805Z,1.20
2022-08-12T03:44:54.216Z,1.13
2022-08-12T03:47:51.742Z,1.10
2022-08-12T03:50:38.935Z,1.30
2022-08-12T03:53:28.937Z,1.20
2022-08-12T03:56:15.663Z,1.20
2022-08-12T03:59:01.999Z,1.48
2022-08-12T04:01:29.747Z,1.00
2022-08-12T04:03:58.203Z,1.30
2022-08-12T04:06:34.776Z,1.10
2022-08-12T04:09:16.612Z,1.20
2022-08-12T04:12:04.616Z,1.20
2022-08-12T04:14:33.014Z,1.10
2022-08-12T04:17:01.143Z,1.30
2022-08-12T04:19:29.563Z,1.27
2022-08-12T04:22:01.367Z,1.10
2022-08-12T04:24:36.869Z,1.15
2022-08-12T04:27:12.243Z,1.25
2022-08-12T04:30:29.550Z,1.20
2022-08-12T04:32:28.111Z,1.30
2022-08-12T04:34:55.834Z,1.20
2022-08-12T04:37:23.554Z,1.30
2022-08-12T04:39:52.695Z,1.40
2022-08-12T04:42:20.894Z,1.00
2022-08-12T04:44:48.662Z,1.25
2022-08-12T04:47:17.158Z,1.10
2022-08-12T04:49:46.045Z,1.20
2022-08-12T04:52:14.704Z,1.33
2022-08-12T04:54:44.005Z,1.40
2022-08-12T04:57:11.877Z,1.23
2022-08-12T04:59:47.644Z,1.08
2022-08-12T05:02:22.421Z,1.20
2022-08-12T05:04:52.331Z,1.30
2022-08-12T05:07:21.108Z,1.30
2022-08-12T05:10:00.550Z,1.25
2022-08-12T05:12:43.206Z,1.30
2022-08-12T05:18:00.096Z,1.40
2022-08-12T05:20:30.964Z,1.30
2022-08-12T05:23:13.052Z,1.40
2022-08-12T05:25:43.447Z,1.40
2022-08-12T05:28:13.182Z,1.23
2022-08-12T05:30:42.783Z,1.35
2022-08-12T05:33:12.038Z,1.30
2022-08-12T05:35:43.022Z,1.42
2022-08-12T05:38:30.401Z,1.30
2022-08-12T05:40:58.549Z,1.30
2022-08-12T05:43:26.019Z,1.50
2022-08-12T05:45:53.847Z,1.35
2022-08-12T05:48:22.104Z,1.33
2022-08-12T05:50:49.696Z,1.27
2022-08-12T05:53:17.160Z,1.40
2022-08-12T05:55:44.560Z,1.30
2022-08-12T05:58:12.003Z,1.42
2022-08-12T06:00:39.483Z,1.40
2022-08-12T06:03:07.611Z,1.40
2022-08-12T06:05:52.662Z,1.35
2022-08-12T06:08:24.540Z,1.45
2022-08-12T06:10:52.650Z,1.45
2022-08-12T06:13:28.492Z,1.40
2022-08-12T06:16:08.113Z,1.40
2022-08-12T06:18:40.180Z,1.15
2022-08-12T06:21:09.235Z,1.50
2022-08-12T06:23:41.985Z,1.40
2022-08-12T06:26:13.040Z,1.50
2022-08-12T06:28:41.440Z,1.30
2022-08-12T06:31:27.453Z,1.33
2022-08-12T06:35:22.555Z,1.38
2022-08-12T06:36:43.179Z,1.20
2022-08-12T06:39:14.221Z,1.45
2022-08-12T06:42:31.388Z,1.30
2022-08-12T06:44:50.653Z,1.42
2022-08-12T06:47:19.798Z,1.52
2022-08-12T06:49:49.649Z,1.52
2022-08-12T06:52:17.489Z,1.42
2022-08-12T06:54:46.004Z,1.50
2022-08-12T06:58:04.436Z,1.33
2022-08-12T07:00:00.978Z,1.42
2022-08-12T07:02:31.518Z,1.30
2022-08-12T07:05:01.134Z,1.40
2022-08-12T07:07:28.626Z,1.50
2022-08-12T07:10:06.034Z,1.50
2022-08-12T07:12:36.144Z,1.58
2022-08-12T07:15:04.321Z,1.70
2022-08-12T07:17:37.806Z,1.50
2022-08-12T07:20:29.879Z,1.67
2022-08-12T07:23:05.272Z,1.85
2022-08-12T07:25:41.171Z,1.75
2022-08-12T07:28:17.799Z,1.60
2022-08-12T07:30:48.647Z,1.60
2022-08-12T07:35:45.691Z,1.80
2022-08-12T07:38:30.751Z,1.40
2022-08-12T07:41:03.204Z,1.60
2022-08-12T07:43:32.908Z,1.80
2022-08-12T07:46:01.200Z,1.60
2022-08-12T07:48:34.550Z,1.45
2022-08-12T07:51:02.099Z,1.90
2022-08-12T07:53:29.550Z,1.77
2022-08-12T07:55:56.981Z,1.70
2022-08-12T07:58:25.666Z,1.58
2022-08-12T08:00:57.804Z,1.52
2022-08-12T08:03:26.019Z,1.40
2022-08-12T08:05:54.165Z,1.65
2022-08-12T08:08:29.177Z,1.50
2022-08-12T08:11:18.265Z,1.65
2022-08-12T08:13:47.343Z,1.63
2022-08-12T08:16:15.434Z,1.65
2022-08-12T08:18:43.542Z,1.60
2022-08-12T08:21:11.269Z,1.40
2022-08-12T08:24:02.020Z,1.40
2022-08-12T08:26:32.834Z,1.58
2022-08-12T08:29:02.395Z,1.42
2022-08-12T08:31:31.716Z,1.60
2022-08-12T08:34:09.502Z,1.52
2022-08-12T08:36:47.164Z,1.48
2022-08-12T08:39:24.957Z,1.40
2022-08-12T08:42:15.533Z,1.70
2022-08-12T08:44:47.212Z,1.45
2022-08-12T08:49:45.805Z,1.48
2022-08-12T08:52:13.259Z,1.55
2022-08-12T08:55:00.699Z,1.90
2022-08-12T08:57:42.806Z,1.50
2022-08-12T09:00:21.145Z,1.50
2022-08-12T09:02:59.248Z,1.50
2022-08-12T09:06:01.723Z,1.30
2022-08-12T09:08:20.780Z,1.50
2022-08-12T09:12:07.333Z,1.63
2022-08-12T09:14:18.625Z,1.73
2022-08-12T09:16:50.169Z,1.50
2022-08-12T09:19:27.137Z,1.88
2022-08-12T09:22:00.254Z,1.80
2022-08-12T09:24:28.008Z,1.60
2022-08-12T09:26:59.020Z,1.40
2022-08-12T09:30:11.290Z,1.60
2022-08-12T09:32:57.019Z,1.50
2022-08-12T09:35:02.379Z,1.52
2022-08-12T09:37:55.338Z,1.60
2022-08-12T09:41:02.344Z,1.80
2022-08-12T09:43:25.623Z,1.60
2022-08-12T09:46:12.100Z,1.80
2022-08-12T09:48:44.617Z,1.50
2022-08-12T09:51:23.446Z,1.70
2022-08-12T09:54:08.746Z,1.63
2022-08-12T09:57:00.932Z,1.80
2022-08-12T10:00:17.785Z,1.75
2022-08-12T10:02:45.375Z,1.60
2022-08-12T10:05:09.276Z,1.63
2022-08-12T10:07:41.776Z,1.55
2022-08-12T10:10:22.916Z,1.80
2022-08-12T10:13:33.829Z,1.88
2022-08-12T10:16:05.587Z,1.95
2022-08-12T10:18:52.237Z,1.77
2022-08-12T10:21:36.518Z,1.75
2022-08-12T10:24:19.969Z,1.88
2022-08-12T10:27:06.952Z,1.80
2022-08-12T10:30:39.353Z,1.80
2022-08-12T10:32:45.053Z,1.80
2022-08-12T10:35:16.648Z,1.48
2022-08-12T10:38:37.254Z,1.90
2022-08-12T10:40:54.730Z,1.95
2022-08-12T10:43:55.795Z,1.80
2022-08-12T10:46:30.901Z,1.90
2022-08-12T10:49:07.020Z,1.73
2022-08-12T10:52:32.341Z,1.63
2022-08-12T10:54:41.716Z,1.50
2022-08-12T10:57:18.348Z,1.77
2022-08-12T11:00:34.979Z,1.60
2022-08-12T11:04:23.904Z,1.88
2022-08-12T11:07:07.812Z,1.88
2022-08-12T11:08:38.273Z,1.88
2022-08-12T11:11:13.755Z,1.73
2022-08-12T11:13:46.663Z,1.73
2022-08-12T11:16:19.645Z,1.60
2022-08-12T11:18:55.512Z,1.60
2022-08-12T11:21:58.127Z,1.63
2022-08-12T11:24:30.154Z,1.98
2022-08-12T11:27:00.595Z,1.63
2022-08-12T11:30:05.855Z,1.75
2022-08-12T11:32:17.511Z,1.70
2022-08-12T11:34:53.855Z,1.70
2022-08-12T11:37:26.202Z,1.70
2022-08-12T11:42:46.099Z,1.60
2022-08-12T11:45:16.417Z,1.58
2022-08-12T11:47:44.797Z,1.70
2022-08-12T11:50:19.231Z,1.77
2022-08-12T11:52:55.958Z,1.85
2022-08-12T11:55:25.605Z,1.80
2022-08-12T11:58:27.943Z,1.70
2022-08-12T12:03:43.843Z,1.70
2022-08-12T12:06:17.235Z,2.10
2022-08-12T12:11:20.897Z,2.45
2022-08-12T12:14:08.101Z,2.20
2022-08-12T12:16:38.066Z,1.83
2022-08-12T12:21:47.284Z,2.15
2022-08-12T12:24:22.084Z,1.77
2022-08-12T12:27:00.145Z,2.10
2022-08-12T12:30:13.630Z,1.92
2022-08-12T12:32:18.400Z,2.00
2022-08-12T12:35:14.389Z,1.95
2022-08-12T12:38:04.710Z,1.70
2022-08-12T12:40:29.772Z,1.92
2022-08-12T12:43:03.085Z,2.00
2022-08-12T12:45:35.555Z,2.17
2022-08-12T12:48:08.149Z,2.10
2022-08-12T12:50:42.423Z,1.77
2022-08-12T12:54:06.128Z,2.15
2022-08-12T12:56:33.943Z,1.80
2022-08-12T12:59:03.950Z,1.70
2022-08-12T13:01:36.323Z,1.90
2022-08-12T13:04:12.166Z,1.65
2022-08-12T13:06:41.392Z,1.85
2022-08-12T13:09:13.232Z,1.85
2022-08-12T13:11:42.031Z,1.75
2022-08-12T13:14:28.940Z,1.90
2022-08-12T13:17:02.824Z,1.80
2022-08-12T13:19:45.267Z,1.80
2022-08-12T13:22:23.819Z,1.85
2022-08-12T13:24:56.415Z,1.70
2022-08-12T13:27:35.765Z,1.63
2022-08-12T13:30:10.651Z,2.00
2022-08-12T13:32:39.632Z,1.80
2022-08-12T13:35:32.890Z,1.83
2022-08-12T13:37:58.109Z,1.83
2022-08-12T13:40:31.854Z,2.10
2022-08-12T13:43:02.057Z,1.80
2022-08-12T13:45:31.589Z,2.15
2022-08-12T13:48:02.145Z,1.90
2022-08-12T13:50:32.909Z,2.20
2022-08-12T13:53:23.494Z,2.08
2022-08-12T13:56:01.419Z,2.00
2022-08-12T13:58:33.078Z,2.28
2022-08-12T14:01:05.929Z,2.25
2022-08-12T14:03:50.188Z,2.20
2022-08-12T14:06:20.736Z,1.73
2022-08-12T14:08:51.545Z,2.08
2022-08-12T14:11:25.323Z,2.03
2022-08-12T14:14:04.663Z,1.90
2022-08-12T14:16:51.329Z,2.10
2022-08-12T14:19:22.806Z,2.10
2022-08-12T14:22:01.553Z,2.00
2022-08-12T14:24:40.464Z,1.80
2022-08-12T14:27:11.062Z,1.90
2022-08-12T14:30:04.781Z,2.05
2022-08-12T14:35:09.902Z,2.13
2022-08-12T14:37:56.603Z,2.05
2022-08-12T14:40:30.104Z,1.80
2022-08-12T14:42:59.007Z,1.58
2022-08-12T14:45:44.489Z,1.98
2022-08-12T14:48:19.646Z,2.28
2022-08-12T14:51:09.797Z,1.70
2022-08-12T14:57:00.181Z,1.75
2022-08-12T14:59:57.198Z,1.70
2022-08-12T15:02:23.580Z,1.85
2022-08-12T15:04:59.610Z,2.23
2022-08-12T15:07:32.781Z,2.20
2022-08-12T15:10:13.637Z,2.00
2022-08-12T15:12:41.498Z,1.83
2022-08-12T15:15:10.440Z,2.00
2022-08-12T15:17:39.219Z,2.20
2022-08-12T15:20:28.469Z,2.03
2022-08-12T15:22:58.119Z,1.90
2022-08-12T15:25:27.086Z,1.83
2022-08-12T15:28:04.548Z,2.00
2022-08-12T15:30:37.636Z,1.73
2022-08-12T15:33:12.757Z,1.73
2022-08-12T15:35:50.167Z,2.15
2022-08-12T15:38:24.625Z,1.80
2022-08-12T15:40:53.427Z,2.03
2022-08-12T15:43:35.619Z,1.80
2022-08-12T15:46:15.236Z,1.75
2022-08-12T15:48:47.464Z,2.20
2022-08-12T15:51:57.508Z,2.28
2022-08-12T15:54:30.792Z,2.10
2022-08-12T15:57:06.008Z,1.90
2022-08-12T16:00:00.540Z,2.05
2022-08-12T16:02:29.515Z,2.00
2022-08-12T16:04:57.973Z,1.90
2022-08-12T16:07:31.203Z,2.00
2022-08-12T16:10:05.964Z,1.98
2022-08-12T16:12:54.421Z,1.88
2022-08-12T16:15:29.383Z,1.80
2022-08-12T16:18:17.850Z,2.07
2022-08-12T16:20:48.624Z,1.90
2022-08-12T16:23:36.303Z,2.00
2022-08-12T16:26:14.136Z,2.00
2022-08-12T16:28:47.540Z,1.63
2022-08-12T16:31:23.231Z,2.10
2022-08-12T16:33:58.954Z,1.90
2022-08-12T16:36:31.283Z,1.90
2022-08-12T16:39:03.486Z,2.10
2022-08-12T16:41:38.028Z,1.80
2022-08-12T16:44:08.224Z,2.17
2022-08-12T16:46:37.484Z,1.85
2022-08-12T16:49:13.944Z,1.90
2022-08-12T16:51:46.449Z,1.70
2022-08-12T16:54:17.095Z,1.70
2022-08-12T16:56:54.626Z,1.80
2022-08-12T16:59:31.225Z,1.83
2022-08-12T17:02:31.598Z,1.80
2022-08-12T17:05:05.311Z,1.98
2022-08-12T17:07:43.570Z,1.70
2022-08-12T17:10:18.485Z,1.73
2022-08-12T17:13:09.527Z,1.90
2022-08-12T17:15:56.693Z,1.80
2022-08-12T17:18:42.825Z,1.80
2022-08-12T17:21:17.470Z,1.80
2022-08-12T17:23:54.604Z,1.70
2022-08-12T17:26:27.911Z,1.80
2022-08-12T17:28:58.286Z,1.90
2022-08-12T17:31:59.566Z,1.70
2022-08-12T17:34:35.701Z,1.50
2022-08-12T17:37:06.543Z,1.70
2022-08-12T17:40:15.395Z,1.90
2022-08-12T17:42:34.668Z,1.70
2022-08-12T17:45:17.993Z,1.95
2022-08-12T17:48:01.886Z,1.60
2022-08-12T17:50:34.305Z,1.80
2022-08-12T17:53:03.573Z,1.70
2022-08-12T17:55:43.837Z,1.90
2022-08-12T17:58:35.576Z,1.88
2022-08-12T18:01:11.503Z,1.88
2022-08-12T18:03:58.264Z,1.60
2022-08-12T18:06:28.622Z,1.98
2022-08-12T18:09:08.817Z,1.80
2022-08-12T18:12:04.163Z,1.70
2022-08-12T18:14:36.634Z,1.70
2022-08-12T18:17:08.698Z,1.65
2022-08-12T18:20:05.113Z,1.77
2022-08-12T18:22:33.440Z,1.75
2022-08-12T18:25:06.599Z,1.70
2022-08-12T18:27:46.751Z,1.73
2022-08-12T18:30:29.460Z,1.48
2022-08-12T18:33:05.303Z,1.70
2022-08-12T18:35:47.604Z,1.60
2022-08-12T18:38:22.211Z,1.63
2022-08-12T18:41:10.291Z,1.80
2022-08-12T18:43:59.167Z,1.77
2022-08-12T18:47:02.463Z,1.55
2022-08-12T18:49:38.889Z,1.48
2022-08-12T18:52:11.618Z,1.70
2022-08-12T18:54:54.089Z,1.65
2022-08-12T18:58:05.753Z,1.67
2022-08-12T19:00:21.379Z,1.45
2022-08-12T19:02:52.873Z,1.52
2022-08-12T19:05:21.296Z,1.60
2022-08-12T19:08:00.940Z,1.60
2022-08-12T19:13:24.365Z,1.52
2022-08-12T19:15:58.079Z,1.52
2022-08-12T19:18:29.195Z,2.03
2022-08-12T19:21:12.025Z,1.45
2022-08-12T19:24:04.731Z,1.58
2022-08-12T19:26:34.967Z,1.40
2022-08-12T19:29:05.293Z,1.58
2022-08-12T19:37:22.878Z,1.60
2022-08-12T19:40:08.170Z,1.42
2022-08-12T19:42:44.880Z,1.70
2022-08-12T19:45:16.677Z,1.60
2022-08-12T19:47:46.870Z,1.80
2022-08-12T19:50:19.852Z,1.67
2022-08-12T19:52:53.064Z,1.52
2022-08-12T19:55:23.171Z,1.42
2022-08-12T19:58:02.678Z,1.52
2022-08-12T20:00:34.599Z,1.50
2022-08-12T20:03:04.683Z,1.40
2022-08-12T20:06:04.820Z,1.30
2022-08-12T20:08:31.668Z,1.60
2022-08-12T20:12:13.789Z,1.65
2022-08-12T20:14:00.590Z,1.50
2022-08-12T20:16:57.172Z,1.55
2022-08-12T20:19:52.788Z,1.50
2022-08-12T20:22:23.997Z,1.60
2022-08-12T20:25:01.481Z,1.30
2022-08-12T20:28:04.688Z,1.50
2022-08-12T20:30:37.609Z,1.50
2022-08-12T20:33:19.023Z,1.67
2022-08-12T20:36:13.547Z,1.40
2022-08-12T20:38:46.771Z,1.60
2022-08-12T20:41:17.809Z,1.52
2022-08-12T20:43:57.140Z,1.50
2022-08-12T20:46:32.384Z,1.67
2022-08-12T20:49:17.148Z,1.60
2022-08-12T20:51:55.070Z,1.65
2022-08-12T20:54:32.842Z,1.52
2022-08-12T20:57:07.471Z,1.50
2022-08-12T20:59:47.697Z,1.40
2022-08-12T21:02:24.103Z,1.63
2022-08-12T21:05:19.621Z,1.40
2022-08-12T21:07:52.268Z,1.60
2022-08-12T21:10:21.318Z,1.67
2022-08-12T21:12:54.219Z,1.50
2022-08-12T21:15:30.721Z,1.60
2022-08-12T21:18:27.063Z,1.48
2022-08-12T21:20:57.362Z,1.40
2022-08-12T21:23:25.504Z,1.45
2022-08-12T21:26:01.180Z,1.52
2022-08-12T21:28:31.655Z,1.45
2022-08-12T21:32:35.007Z,1.90
2022-08-12T21:34:07.569Z,1.60
2022-08-12T21:36:39.899Z,1.52
2022-08-12T21:39:18.973Z,1.55
2022-08-12T21:41:52.645Z,1.40
2022-08-12T21:45:44.491Z,1.48
2022-08-12T21:47:21.071Z,1.30
2022-08-12T21:50:04.086Z,1.38
2022-08-12T21:52:42.209Z,1.50
2022-08-12T21:55:18.515Z,1.50
2022-08-12T21:57:53.477Z,1.40
2022-08-12T22:00:32.086Z,1.30
2022-08-12T22:04:03.090Z,1.30
2022-08-12T22:06:41.083Z,1.20
2022-08-12T22:09:15.804Z,1.45
2022-08-12T22:11:56.400Z,1.40
2022-08-12T22:14:29.322Z,1.38
2022-08-12T22:16:58.500Z,1.20
2022-08-12T22:19:26.607Z,1.33
2022-08-12T22:21:56.240Z,1.50
2022-08-12T22:24:30.379Z,1.40
2022-08-12T22:27:32.003Z,1.33
2022-08-12T22:30:16.776Z,1.20
2022-08-12T22:32:50.075Z,1.50
2022-08-12T22:35:55.747Z,1.40
2022-08-12T22:38:26.677Z,1.27
2022-08-12T22:41:02.359Z,1.40
2022-08-12T22:43:59.820Z,1.30
2022-08-12T22:46:33.041Z,1.30
2022-08-12T22:49:01.085Z,1.30
2022-08-12T22:51:57.630Z,1.52
2022-08-12T22:54:36.126Z,1.30
2022-08-12T22:57:11.884Z,1.20
2022-08-12T22:59:55.607Z,1.15
2022-08-12T23:02:29.047Z,1.42
2022-08-12T23:04:58.305Z,1.20
2022-08-12T23:07:25.829Z,1.30
2022-08-12T23:09:54.778Z,1.30
2022-08-12T23:12:46.510Z,1.50
2022-08-12T23:15:14.723Z,1.20
2022-08-12T23:17:42.835Z,1.30
2022-08-12T23:20:11.532Z,1.25
2022-08-12T23:22:40.131Z,1.30
2022-08-12T23:25:32.576Z,1.20
2022-08-12T23:28:32.794Z,1.30
2022-08-12T23:31:04.399Z,1.25
2022-08-12T23:34:00.186Z,1.17
2022-08-12T23:36:39.393Z,1.15
2022-08-12T23:40:06.451Z,1.30
2022-08-12T23:42:18.006Z,1.17
2022-08-12T23:44:48.639Z,1.13
2022-08-12T23:47:21.802Z,1.00
2022-08-12T23:49:58.127Z,1.30
2022-08-12T23:52:33.827Z,1.20
2022-08-12T23:55:24.039Z,1.20
2022-08-12T23:58:17.279Z,1.05
